createdAt,value
2022-11-29T00:01:23.431Z,97764.78
2022-11-29T00:03:50.135Z,97765.63
2022-11-29T00:06:18.512Z,97767.09
2022-11-29T00:08:45.269Z,97770.53
2022-11-29T00:11:13.034Z,97759.88
2022-11-29T00:13:39.781Z,97763.69
2022-11-29T00:16:07.934Z,97757.31
2022-11-29T00:18:34.377Z,97761.88
2022-11-29T00:21:00.912Z,97760.06
2022-11-29T00:23:27.445Z,97753.09
2022-11-29T00:25:53.910Z,97766.44
2022-11-29T00:28:20.331Z,97757.16
2022-11-29T00:30:47.345Z,97756.22
2022-11-29T00:33:13.836Z,97756.44
2022-11-29T00:35:40.297Z,97760.47
2022-11-29T00:38:06.793Z,97760.50
2022-11-29T00:40:33.248Z,97750.81
2022-11-29T00:42:59.709Z,97750.81
2022-11-29T00:45:26.148Z,97754.31
2022-11-29T00:47:52.630Z,97758.59
2022-11-29T00:50:19.104Z,97753.25
2022-11-29T00:52:45.633Z,97756.44
2022-11-29T00:55:12.106Z,97761.78
2022-11-29T00:57:38.523Z,97759.88
2022-11-29T01:00:05.411Z,97761.94
2022-11-29T01:02:31.859Z,97758.56
2022-11-29T01:04:58.310Z,97765.50
2022-11-29T01:07:24.792Z,97758.44
2022-11-29T01:09:51.311Z,97760.44
2022-11-29T01:12:17.772Z,97764.97
2022-11-29T01:14:44.518Z,97764.13
2022-11-29T01:17:11.100Z,97757.31
2022-11-29T01:19:38.051Z,97760.28
2022-11-29T01:22:04.511Z,97761.78
2022-11-29T01:24:30.997Z,97752.16
2022-11-29T01:26:57.451Z,97754.50
2022-11-29T01:29:24.595Z,97749.19
2022-11-29T01:31:51.096Z,97756.22
2022-11-29T01:34:17.572Z,97751.75
2022-11-29T01:36:44.028Z,97746.66
2022-11-29T01:39:10.466Z,97751.50
2022-11-29T01:41:37.794Z,97746.31
2022-11-29T01:44:07.264Z,97754.97
2022-11-29T01:46:35.215Z,97753.50
2022-11-29T01:49:05.284Z,97751.13
2022-11-29T01:51:33.459Z,97755.28
2022-11-29T01:54:00.188Z,97762.41
2022-11-29T01:56:28.175Z,97750.16
2022-11-29T01:58:54.780Z,97758.16
2022-11-29T02:01:21.366Z,97752.56
2022-11-29T02:03:47.847Z,97755.50
2022-11-29T02:06:14.930Z,97751.72
2022-11-29T02:08:42.391Z,97752.41
2022-11-29T02:11:20.866Z,97750.38
2022-11-29T02:14:05.251Z,97754.22
2022-11-29T02:16:43.037Z,97753.34
2022-11-29T02:19:21.684Z,97743.09
2022-11-29T02:22:03.090Z,97750.38
2022-11-29T02:24:48.573Z,97746.50
2022-11-29T02:27:30.314Z,97748.97
2022-11-29T02:30:15.560Z,97745.38
2022-11-29T02:32:54.211Z,97755.38
2022-11-29T02:35:39.547Z,97754.13
2022-11-29T02:38:21.318Z,97753.75
2022-11-29T02:41:06.261Z,97756.00
2022-11-29T02:43:32.783Z,97755.78
2022-11-29T02:46:18.104Z,97761.13
2022-11-29T02:48:59.994Z,97761.78
2022-11-29T02:51:32.440Z,97760.72
2022-11-29T02:54:11.126Z,97757.50
2022-11-29T02:56:44.867Z,97766.03
2022-11-29T02:59:21.666Z,97769.84
2022-11-29T03:02:12.447Z,97768.81
2022-11-29T03:04:54.282Z,97761.34
2022-11-29T03:07:34.737Z,97769.13
2022-11-29T03:10:16.696Z,97767.31
2022-11-29T03:12:49.673Z,97765.72
2022-11-29T03:15:41.327Z,97766.03
2022-11-29T03:18:10.864Z,97773.19
2022-11-29T03:20:56.058Z,97768.91
2022-11-29T03:23:32.868Z,97767.53
2022-11-29T03:26:04.606Z,97772.59
2022-11-29T03:28:32.656Z,97769.00
2022-11-29T03:31:07.219Z,97772.00
2022-11-29T03:33:52.251Z,97772.09
2022-11-29T03:36:24.938Z,97777.22
2022-11-29T03:38:55.049Z,97771.97
2022-11-29T03:41:32.081Z,97781.28
2022-11-29T03:44:07.796Z,97785.53
2022-11-29T03:46:34.338Z,97790.56
2022-11-29T03:49:24.133Z,97785.41
2022-11-29T03:51:58.536Z,97799.22
2022-11-29T03:54:33.235Z,97793.69
2022-11-29T03:56:59.888Z,97798.81
2022-11-29T03:59:35.756Z,97792.66
2022-11-29T04:02:02.293Z,97790.84
2022-11-29T04:04:47.887Z,97795.88
2022-11-29T04:07:14.460Z,97793.50
2022-11-29T04:09:40.896Z,97797.00
2022-11-29T04:12:25.815Z,97802.03
2022-11-29T04:15:14.171Z,97808.56
2022-11-29T04:17:42.125Z,97803.09
2022-11-29T04:20:20.713Z,97804.56
2022-11-29T04:23:06.122Z,97801.41
2022-11-29T04:25:44.897Z,97814.19
2022-11-29T04:28:17.511Z,97809.47
2022-11-29T04:30:53.290Z,97810.66
2022-11-29T04:33:19.743Z,97803.72
2022-11-29T04:35:49.301Z,97819.09
2022-11-29T04:38:18.725Z,97821.41
2022-11-29T04:41:00.456Z,97819.19
2022-11-29T04:43:56.439Z,97824.06
2022-11-29T04:46:36.242Z,97821.88
2022-11-29T04:49:14.921Z,97827.09
2022-11-29T04:52:02.416Z,97831.09
2022-11-29T04:54:31.955Z,97830.47
2022-11-29T04:57:06.513Z,97839.00
2022-11-29T04:59:38.537Z,97826.94
2022-11-29T05:02:23.750Z,97828.66
2022-11-29T05:05:00.837Z,97833.75
2022-11-29T05:07:46.875Z,97830.25
2022-11-29T05:10:31.552Z,97834.44
2022-11-29T05:13:03.029Z,97838.47
2022-11-29T05:15:44.982Z,97838.13
2022-11-29T05:18:21.626Z,97832.75
2022-11-29T05:21:04.838Z,97835.28
2022-11-29T05:23:46.866Z,97832.06
2022-11-29T05:26:13.257Z,97832.84
2022-11-29T05:28:42.760Z,97834.72
2022-11-29T05:31:28.019Z,97836.97
2022-11-29T05:34:11.778Z,97838.06
2022-11-29T05:36:41.120Z,97835.41
2022-11-29T05:39:26.133Z,97835.28
2022-11-29T05:41:52.566Z,97834.88
2022-11-29T05:44:32.509Z,97834.13
2022-11-29T05:47:02.785Z,97839.97
2022-11-29T05:49:40.140Z,97836.56
2022-11-29T05:52:12.708Z,97846.91
2022-11-29T05:54:47.749Z,97840.81
2022-11-29T05:57:26.861Z,97836.78
2022-11-29T05:59:53.890Z,97839.34
2022-11-29T06:02:26.437Z,97842.63
2022-11-29T06:04:58.723Z,97842.72
2022-11-29T06:07:38.972Z,97849.84
2022-11-29T06:10:26.131Z,97852.50
2022-11-29T06:13:01.621Z,97858.09
2022-11-29T06:15:46.762Z,97852.13
2022-11-29T06:18:27.376Z,97855.53
2022-11-29T06:21:13.162Z,97856.19
2022-11-29T06:23:48.792Z,97855.09
2022-11-29T06:26:30.432Z,97860.25
2022-11-29T06:29:01.593Z,97853.72
2022-11-29T06:31:28.074Z,97857.25
2022-11-29T06:34:09.814Z,97851.47
2022-11-29T06:36:39.016Z,97856.56
2022-11-29T06:39:05.770Z,97857.00
2022-11-29T06:41:32.397Z,97857.25
2022-11-29T06:43:59.117Z,97856.56
2022-11-29T06:46:45.508Z,97858.06
2022-11-29T06:49:21.117Z,97864.41
2022-11-29T06:51:47.554Z,97870.00
2022-11-29T06:54:22.269Z,97868.28
2022-11-29T06:56:54.786Z,97873.81
2022-11-29T06:59:40.086Z,97875.97
2022-11-29T07:02:25.488Z,97871.47
2022-11-29T07:05:00.379Z,97874.16
2022-11-29T07:07:27.074Z,97877.06
2022-11-29T07:09:56.947Z,97872.03
2022-11-29T07:12:23.821Z,97879.84
2022-11-29T07:14:50.402Z,97881.31
2022-11-29T07:17:16.914Z,97887.50
2022-11-29T07:19:54.964Z,97886.00
2022-11-29T07:22:24.474Z,97889.22
2022-11-29T07:25:09.739Z,97889.97
2022-11-29T07:27:56.465Z,97888.53
2022-11-29T07:30:43.317Z,97894.44
2022-11-29T07:33:24.578Z,97889.63
2022-11-29T07:36:00.198Z,97895.56
2022-11-29T07:38:32.584Z,97902.16
2022-11-29T07:41:01.869Z,97901.34
2022-11-29T07:43:28.293Z,97899.44
2022-11-29T07:45:55.870Z,97900.94
2022-11-29T07:48:22.401Z,97907.31
2022-11-29T07:50:49.207Z,97911.34
2022-11-29T07:53:17.299Z,97908.63
2022-11-29T07:55:43.884Z,97909.16
2022-11-29T07:58:13.753Z,97910.63
2022-11-29T08:00:41.879Z,97910.75
2022-11-29T08:03:08.660Z,97910.00
2022-11-29T08:05:35.462Z,97908.69
2022-11-29T08:08:02.388Z,97903.72
2022-11-29T08:10:29.025Z,97908.38
2022-11-29T08:12:55.545Z,97904.97
2022-11-29T08:15:22.722Z,97913.72
2022-11-29T08:17:49.535Z,97913.97
2022-11-29T08:20:16.805Z,97912.47
2022-11-29T08:22:43.498Z,97912.88
2022-11-29T08:25:10.531Z,97909.69
2022-11-29T08:27:37.865Z,97910.13
2022-11-29T08:30:05.418Z,97908.75
2022-11-29T08:32:31.901Z,97916.06
2022-11-29T08:34:58.376Z,97911.59
2022-11-29T08:37:24.855Z,97913.53
2022-11-29T08:39:51.264Z,97908.41
2022-11-29T08:42:17.841Z,97919.59
2022-11-29T08:44:44.731Z,97920.78
2022-11-29T08:47:29.968Z,97925.34
2022-11-29T08:50:02.228Z,97924.81
2022-11-29T08:52:47.746Z,97925.44
2022-11-29T08:55:14.439Z,97928.44
2022-11-29T08:57:41.383Z,97930.66
2022-11-29T09:00:08.464Z,97928.41
2022-11-29T09:02:35.980Z,97926.72
2022-11-29T09:05:02.621Z,97928.22
2022-11-29T09:07:29.128Z,97934.00
2022-11-29T09:09:55.646Z,97933.75
2022-11-29T09:12:22.263Z,97935.56
2022-11-29T09:14:49.036Z,97932.91
2022-11-29T09:17:15.468Z,97936.94
2022-11-29T09:19:41.882Z,97931.22
2022-11-29T09:22:08.304Z,97931.09
2022-11-29T09:24:34.835Z,97935.88
2022-11-29T09:27:01.318Z,97925.50
2022-11-29T09:29:27.785Z,97934.00
2022-11-29T09:31:54.718Z,97943.56
2022-11-29T09:34:21.265Z,97940.38
2022-11-29T09:36:48.167Z,97930.38
2022-11-29T09:39:14.610Z,97933.53
2022-11-29T09:41:53.355Z,97941.22
2022-11-29T09:44:38.460Z,97935.97
2022-11-29T09:47:07.638Z,97931.00
2022-11-29T09:49:37.049Z,97924.41
2022-11-29T09:52:09.610Z,97932.50
2022-11-29T09:55:00.133Z,97926.84
2022-11-29T09:57:28.384Z,97925.44
2022-11-29T09:59:57.615Z,97923.78
2022-11-29T10:02:37.806Z,97919.34
2022-11-29T10:05:13.779Z,97915.72
2022-11-29T10:07:48.844Z,97907.66
2022-11-29T10:10:18.730Z,97912.31
2022-11-29T10:13:15.690Z,97904.94
2022-11-29T10:15:44.254Z,97907.41
2022-11-29T10:18:22.422Z,97911.72
2022-11-29T10:20:50.498Z,97901.31
2022-11-29T10:23:22.963Z,97902.75
2022-11-29T10:25:51.178Z,97894.22
2022-11-29T10:28:20.425Z,97901.81
2022-11-29T10:30:47.244Z,97892.19
2022-11-29T10:33:21.461Z,97894.31
2022-11-29T10:35:49.473Z,97891.84
2022-11-29T10:38:30.897Z,97896.22
2022-11-29T10:41:01.754Z,97892.25
2022-11-29T10:43:28.262Z,97890.03
2022-11-29T10:45:56.305Z,97896.06
2022-11-29T10:48:24.991Z,97895.88
2022-11-29T10:50:52.346Z,97895.16
2022-11-29T10:53:20.830Z,97895.97
2022-11-29T10:56:00.412Z,97892.84
2022-11-29T10:58:29.033Z,97895.19
2022-11-29T11:01:07.930Z,97896.97
2022-11-29T11:03:39.584Z,97889.72
2022-11-29T11:06:32.349Z,97897.28
2022-11-29T11:09:14.432Z,97903.47
2022-11-29T11:11:41.519Z,97898.94
2022-11-29T11:14:37.676Z,97896.22
2022-11-29T11:17:19.649Z,97896.16
2022-11-29T11:19:57.008Z,97891.91
2022-11-29T11:22:24.673Z,97893.19
2022-11-29T11:24:59.137Z,97894.28
2022-11-29T11:27:30.081Z,97894.94
2022-11-29T11:29:56.620Z,97902.22
2022-11-29T11:32:23.290Z,97893.13
2022-11-29T11:34:54.509Z,97899.44
2022-11-29T11:37:21.006Z,97901.56
2022-11-29T11:39:48.961Z,97899.84
2022-11-29T11:42:36.969Z,97897.94
2022-11-29T11:45:12.703Z,97900.88
2022-11-29T11:47:43.773Z,97896.28
2022-11-29T11:50:16.524Z,97894.75
2022-11-29T11:52:50.639Z,97893.66
2022-11-29T11:55:36.135Z,97893.81
2022-11-29T11:58:09.299Z,97896.28
2022-11-29T12:01:02.843Z,97898.00
2022-11-29T12:03:26.458Z,97903.78
2022-11-29T12:05:55.114Z,97897.03
2022-11-29T12:08:23.399Z,97904.31
2022-11-29T12:10:52.316Z,97904.31
2022-11-29T12:13:20.902Z,97899.00
2022-11-29T12:15:49.837Z,97903.53
2022-11-29T12:18:21.062Z,97899.16
2022-11-29T12:21:06.346Z,97898.22
2022-11-29T12:23:40.565Z,97896.38
2022-11-29T12:26:07.569Z,97895.56
2022-11-29T12:28:38.551Z,97893.56
2022-11-29T12:31:05.032Z,97890.41
2022-11-29T12:33:31.582Z,97891.31
2022-11-29T12:36:18.416Z,97890.41
2022-11-29T12:38:44.826Z,97894.44
2022-11-29T12:41:30.110Z,97894.59
2022-11-29T12:44:04.973Z,97902.44
2022-11-29T12:46:32.712Z,97905.28
2022-11-29T12:49:05.490Z,97907.72
2022-11-29T12:51:39.814Z,97907.78
2022-11-29T12:54:06.297Z,97906.16
2022-11-29T12:56:36.846Z,97910.25
2022-11-29T12:59:27.888Z,97911.81
2022-11-29T13:01:57.122Z,97907.97
2022-11-29T13:04:23.648Z,97903.72
2022-11-29T13:07:03.234Z,97907.22
2022-11-29T13:09:48.661Z,97907.03
2022-11-29T13:12:21.048Z,97907.41
2022-11-29T13:14:50.662Z,97918.53
2022-11-29T13:17:39.871Z,97918.34
2022-11-29T13:20:29.622Z,97918.34
2022-11-29T13:23:03.873Z,97914.91
2022-11-29T13:25:34.086Z,97913.81
2022-11-29T13:28:03.389Z,97913.72
2022-11-29T13:30:30.001Z,97922.06
2022-11-29T13:33:02.475Z,97929.22
2022-11-29T13:35:33.087Z,97928.88
2022-11-29T13:38:02.621Z,97931.66
2022-11-29T13:40:35.381Z,97933.25
2022-11-29T13:43:11.091Z,97937.81
2022-11-29T13:45:42.467Z,97933.69
2022-11-29T13:48:41.419Z,97934.81
2022-11-29T13:51:37.455Z,97941.16
2022-11-29T13:54:24.917Z,97944.88
2022-11-29T13:57:01.199Z,97944.56
2022-11-29T13:59:29.394Z,97947.00
2022-11-29T14:01:59.035Z,97940.81
2022-11-29T14:04:28.356Z,97936.78
2022-11-29T14:07:06.057Z,97946.16
2022-11-29T14:09:37.443Z,97945.50
2022-11-29T14:12:27.615Z,97957.41
2022-11-29T14:14:56.918Z,97957.25
2022-11-29T14:17:34.828Z,97959.81
2022-11-29T14:20:20.064Z,97957.19
2022-11-29T14:23:16.000Z,97951.25
2022-11-29T14:26:02.369Z,97936.19
2022-11-29T14:28:33.497Z,97935.16
2022-11-29T14:31:03.798Z,97933.28
2022-11-29T14:33:49.040Z,97931.16
2022-11-29T14:36:17.479Z,97939.81
2022-11-29T14:38:46.896Z,97947.81
2022-11-29T14:41:28.745Z,97942.38
2022-11-29T14:44:13.860Z,97945.31
2022-11-29T14:46:40.364Z,97939.31
2022-11-29T14:49:07.107Z,97946.28
2022-11-29T14:51:34.184Z,97937.94
2022-11-29T14:54:06.464Z,97938.59
2022-11-29T14:56:34.925Z,97935.34
2022-11-29T14:59:20.021Z,97935.00
2022-11-29T15:01:46.645Z,97941.91
2022-11-29T15:04:13.509Z,97942.47
2022-11-29T15:06:47.458Z,97945.13
2022-11-29T15:09:20.356Z,97942.47
2022-11-29T15:11:51.907Z,97937.22
2022-11-29T15:14:24.298Z,97935.66
2022-11-29T15:16:50.802Z,97939.53
2022-11-29T15:19:41.930Z,97936.13
2022-11-29T15:22:27.565Z,97939.06
2022-11-29T15:25:02.138Z,97934.34
2022-11-29T15:27:29.076Z,97936.28
2022-11-29T15:29:55.564Z,97929.44
2022-11-29T15:32:30.966Z,97938.81
2022-11-29T15:34:57.632Z,97938.94
2022-11-29T15:37:24.052Z,97932.84
2022-11-29T15:40:09.313Z,97929.75
2022-11-29T15:43:02.205Z,97927.81
2022-11-29T15:45:28.783Z,97923.06
2022-11-29T15:48:09.375Z,97933.72
2022-11-29T15:50:36.111Z,97924.56
2022-11-29T15:53:05.665Z,97921.44
2022-11-29T15:55:32.823Z,97926.28
2022-11-29T15:58:07.017Z,97923.72
2022-11-29T16:00:35.253Z,97932.44
2022-11-29T16:03:02.667Z,97927.75
2022-11-29T16:05:30.929Z,97934.34
2022-11-29T16:08:00.614Z,97928.25
2022-11-29T16:10:40.864Z,97932.13
2022-11-29T16:13:25.877Z,97935.00
2022-11-29T16:16:04.812Z,97941.53
2022-11-29T16:18:31.412Z,97944.19
2022-11-29T16:20:59.808Z,97950.81
2022-11-29T16:23:36.983Z,97949.94
2022-11-29T16:26:14.962Z,97947.81
2022-11-29T16:28:43.162Z,97936.13
2022-11-29T16:31:12.467Z,97946.56
2022-11-29T16:33:43.703Z,97944.84
2022-11-29T16:36:15.245Z,97943.44
2022-11-29T16:38:46.672Z,97940.56
2022-11-29T16:41:33.264Z,97942.72
2022-11-29T16:44:03.197Z,97946.09
2022-11-29T16:46:31.471Z,97948.78
2022-11-29T16:48:58.884Z,97951.69
2022-11-29T16:51:39.849Z,97948.56
2022-11-29T16:54:20.389Z,97951.47
2022-11-29T16:56:47.016Z,97958.09
2022-11-29T16:59:24.894Z,97949.56
2022-11-29T17:01:53.921Z,97950.53
2022-11-29T17:04:23.851Z,97953.84
2022-11-29T17:06:51.052Z,97950.09
2022-11-29T17:09:27.681Z,97958.84
2022-11-29T17:11:54.956Z,97960.44
2022-11-29T17:14:21.807Z,97967.50
2022-11-29T17:16:49.704Z,97966.63
2022-11-29T17:19:16.549Z,97965.16
2022-11-29T17:21:43.114Z,97964.81
2022-11-29T17:24:14.912Z,97973.25
2022-11-29T17:26:41.925Z,97974.00
2022-11-29T17:29:10.016Z,97977.09
2022-11-29T17:31:36.554Z,97980.72
2022-11-29T17:34:03.112Z,97989.75
2022-11-29T17:36:30.514Z,97996.09
2022-11-29T17:38:58.940Z,97994.69
2022-11-29T17:41:26.205Z,97988.81
2022-11-29T17:43:53.726Z,97995.13
2022-11-29T17:46:34.046Z,97987.53
2022-11-29T17:49:01.773Z,97997.78
2022-11-29T17:51:51.338Z,97996.81
2022-11-29T17:54:14.818Z,97995.66
2022-11-29T17:56:41.263Z,97994.50
2022-11-29T17:59:07.749Z,97997.16
2022-11-29T18:01:35.660Z,98001.94
2022-11-29T18:04:03.620Z,97997.59
2022-11-29T18:06:33.499Z,98004.81
2022-11-29T18:09:01.369Z,98008.66
2022-11-29T18:11:29.899Z,98008.88
2022-11-29T18:13:56.963Z,98009.31
2022-11-29T18:16:24.715Z,98006.94
2022-11-29T18:18:55.461Z,98014.63
2022-11-29T18:21:22.229Z,98020.19
2022-11-29T18:23:48.733Z,98013.91
2022-11-29T18:26:18.540Z,98021.91
2022-11-29T18:28:45.486Z,98010.38
2022-11-29T18:31:21.951Z,98011.66
2022-11-29T18:33:49.565Z,98015.72
2022-11-29T18:36:17.889Z,98016.56
2022-11-29T18:38:44.976Z,98015.16
2022-11-29T18:41:13.775Z,98018.81
2022-11-29T18:43:40.508Z,98013.16
2022-11-29T18:46:08.152Z,98012.81
2022-11-29T18:48:34.989Z,98019.13
2022-11-29T18:51:05.341Z,98017.97
2022-11-29T18:53:33.288Z,98009.63
2022-11-29T18:56:07.103Z,98014.34
2022-11-29T18:58:34.347Z,98015.06
2022-11-29T19:01:11.534Z,98014.09
2022-11-29T19:03:39.289Z,98014.00
2022-11-29T19:06:07.214Z,98021.06
2022-11-29T19:08:33.998Z,98019.25
2022-11-29T19:11:04.693Z,98017.44
2022-11-29T19:13:31.176Z,98025.97
2022-11-29T19:15:57.834Z,98030.31
2022-11-29T19:18:24.308Z,98028.31
2022-11-29T19:20:53.182Z,98033.00
2022-11-29T19:23:21.199Z,98025.97
2022-11-29T19:25:47.718Z,98035.34
2022-11-29T19:28:14.600Z,98024.25
2022-11-29T19:30:41.246Z,98030.88
2022-11-29T19:33:07.741Z,98031.41
2022-11-29T19:35:34.400Z,98031.50
2022-11-29T19:38:00.847Z,98039.59
2022-11-29T19:40:27.593Z,98040.47
2022-11-29T19:42:54.045Z,98036.22
2022-11-29T19:45:21.828Z,98036.84
2022-11-29T19:47:48.480Z,98032.59
2022-11-29T19:50:14.915Z,98042.81
2022-11-29T19:52:41.398Z,98040.03
2022-11-29T19:55:08.142Z,98049.44
2022-11-29T19:57:34.689Z,98034.69
2022-11-29T20:00:01.206Z,98025.75
2022-11-29T20:02:27.885Z,98026.16
2022-11-29T20:04:54.611Z,98034.41
2022-11-29T20:07:21.174Z,98034.16
2022-11-29T20:09:47.883Z,98031.94
2022-11-29T20:12:14.573Z,98034.69
2022-11-29T20:14:41.036Z,98041.97
2022-11-29T20:17:07.487Z,98038.78
2022-11-29T20:19:34.041Z,98040.34
2022-11-29T20:22:00.507Z,98037.63
2022-11-29T20:24:26.952Z,98043.81
2022-11-29T20:26:53.433Z,98048.72
2022-11-29T20:29:21.501Z,98035.94
2022-11-29T20:31:50.822Z,98038.47
2022-11-29T20:34:18.146Z,98044.63
2022-11-29T20:36:44.547Z,98037.63
2022-11-29T20:39:30.171Z,98042.78
2022-11-29T20:42:05.680Z,98043.84
2022-11-29T20:44:53.007Z,98049.31
2022-11-29T20:47:20.928Z,98044.09
2022-11-29T20:49:47.879Z,98049.03
2022-11-29T20:52:24.972Z,98049.13
2022-11-29T20:54:51.449Z,98041.06
2022-11-29T20:57:17.953Z,98045.06
2022-11-29T20:59:44.855Z,98037.38
2022-11-29T21:02:11.455Z,98041.72
2022-11-29T21:04:37.892Z,98034.72
2022-11-29T21:07:04.313Z,98042.09
2022-11-29T21:09:30.757Z,98029.31
2022-11-29T21:11:57.317Z,98039.97
2022-11-29T21:14:23.880Z,98034.63
2022-11-29T21:16:50.459Z,98035.94
2022-11-29T21:19:20.384Z,98035.75
2022-11-29T21:21:49.584Z,98033.41
2022-11-29T21:24:54.705Z,98033.78
2022-11-29T21:27:28.274Z,98041.94
2022-11-29T21:29:55.442Z,98036.81
2022-11-29T21:32:23.271Z,98038.75
2022-11-29T21:34:49.941Z,98038.63
2022-11-29T21:37:18.268Z,98040.00
2022-11-29T21:39:44.869Z,98038.63
2022-11-29T21:42:11.288Z,98037.91
2022-11-29T21:44:37.923Z,98035.97
2022-11-29T21:47:04.496Z,98049.84
2022-11-29T21:49:31.092Z,98044.72
2022-11-29T21:52:00.052Z,98045.25
2022-11-29T21:54:27.053Z,98042.81
2022-11-29T21:56:53.644Z,98044.63
2022-11-29T21:59:20.321Z,98043.22
2022-11-29T22:01:46.856Z,98041.06
2022-11-29T22:04:13.399Z,98039.22
2022-11-29T22:06:39.855Z,98037.44
2022-11-29T22:09:07.689Z,98044.22
2022-11-29T22:11:35.307Z,98047.13
2022-11-29T22:14:18.789Z,98038.97
2022-11-29T22:16:55.760Z,98035.09
2022-11-29T22:19:29.125Z,98031.06
2022-11-29T22:21:56.921Z,98031.06
2022-11-29T22:24:24.594Z,98031.72
2022-11-29T22:26:51.735Z,98038.78
2022-11-29T22:29:18.684Z,98033.84
2022-11-29T22:31:46.708Z,98035.75
2022-11-29T22:34:13.540Z,98029.66
2022-11-29T22:36:40.314Z,98033.59
2022-11-29T22:39:07.465Z,98033.72
2022-11-29T22:41:34.709Z,98031.59
2022-11-29T22:44:01.148Z,98032.78
2022-11-29T22:46:28.100Z,98020.38
2022-11-29T22:48:55.604Z,98027.91
2022-11-29T22:51:24.016Z,98030.75
2022-11-29T22:54:00.405Z,98036.97
2022-11-29T22:56:28.070Z,98031.97
2022-11-29T22:58:54.693Z,98037.22
2022-11-29T23:01:22.742Z,98037.97
2022-11-29T23:03:54.194Z,98034.56
2022-11-29T23:06:21.960Z,98033.50
2022-11-29T23:08:48.804Z,98042.97
2022-11-29T23:11:16.583Z,98038.09
2022-11-29T23:13:43.494Z,98041.47
2022-11-29T23:16:12.964Z,98034.50
2022-11-29T23:18:40.120Z,98033.09
2022-11-29T23:21:08.098Z,98024.94
2022-11-29T23:23:34.744Z,98026.09
2022-11-29T23:26:01.591Z,98017.91
2022-11-29T23:28:28.413Z,98014.81
2022-11-29T23:30:55.310Z,98017.28
2022-11-29T23:33:22.356Z,98018.44
2022-11-29T23:35:49.191Z,98016.72
2022-11-29T23:38:15.833Z,98016.53
2022-11-29T23:40:43.431Z,98019.84
2022-11-29T23:43:10.112Z,98021.47
2022-11-29T23:45:38.737Z,98020.38
2022-11-29T23:48:05.835Z,98017.00
2022-11-29T23:50:32.299Z,98022.53
2022-11-29T23:52:58.776Z,98021.47
2022-11-29T23:55:26.045Z,98020.09
2022-11-29T23:57:52.887Z,98024.44
